Time;durP1;ratioP1;P1;durP2;ratioP2;P2;SDS_P1;SDS_P2;PMS_P1;PMS_P2;Temp;Humidity;BMP_temperature;BMP_pressure;BME280_temperature;BME280_humidity;BME280_pressure;Samples;Min_cycle;Max_cycle;Signal;HPM_P1;HPM_P2
2021/12/11 00:01:36;;;;;;;1.57;1.30;;;;;;;2.26;100.00;151946.41;5052981;28;20448;-74
2021/12/11 00:04:14;;;;;;;1.63;1.53;;;;;;;2.24;100.00;151941.25;5093122;28;20444;-75
2021/12/11 00:06:52;;;;;;;2.57;1.60;;;;;;;2.25;100.00;151943.84;5045582;28;20443;-74
2021/12/11 00:09:29;;;;;;;2.33;1.50;;;;;;;2.26;100.00;151946.41;5051603;28;20542;-75
2021/12/11 00:12:12;;;;;;;1.97;1.60;;;;;;;2.22;100.00;151937.44;5057831;28;20469;-74
2021/12/11 00:14:51;;;;;;;1.90;1.50;;;;;;;2.21;100.00;151934.84;5071303;28;20451;-74
2021/12/11 00:17:29;;;;;;;1.87;1.30;;;;;;;2.21;100.00;151934.84;5052841;28;20448;-75
2021/12/11 00:20:08;;;;;;;2.50;1.90;;;;;;;2.20;100.00;151932.25;5065873;28;20978;-75
2021/12/11 00:22:43;;;;;;;1.87;1.50;;;;;;;2.22;100.00;151936.13;5060521;28;20457;-75
2021/12/11 00:25:21;;;;;;;2.77;1.47;;;;;;;2.20;100.00;151932.25;5071853;28;20437;-75
2021/12/11 00:28:05;;;;;;;2.73;1.60;;;;;;;2.20;100.00;151930.94;5087140;28;20492;-74
2021/12/11 00:30:44;;;;;;;2.10;1.70;;;;;;;2.25;100.00;151945.09;5089259;28;20895;-75
2021/12/11 00:33:24;;;;;;;2.53;2.13;;;;;;;2.25;100.00;151945.09;5061549;28;20905;-75
2021/12/11 00:36:00;;;;;;;3.10;1.87;;;;;;;2.25;100.00;151945.09;5072622;28;20931;-74
2021/12/11 00:38:35;;;;;;;2.20;2.00;;;;;;;2.25;100.00;151945.09;5059355;28;20462;-74
2021/12/11 00:41:14;;;;;;;2.00;1.63;;;;;;;2.25;100.00;151943.84;5072619;28;20447;-74
2021/12/11 00:43:51;;;;;;;3.80;2.00;;;;;;;2.21;100.00;151934.84;5057317;28;20442;-75
2021/12/11 00:46:27;;;;;;;2.80;2.13;;;;;;;2.24;100.00;151942.56;5071737;28;20448;-75
2021/12/11 00:49:10;;;;;;;2.30;1.80;;;;;;;2.26;100.00;151947.69;5071554;28;20807;-75
2021/12/11 00:51:50;;;;;;;2.60;2.00;;;;;;;2.27;100.00;151950.28;5072533;28;20804;-75
2021/12/11 00:54:26;;;;;;;2.00;1.40;;;;;;;2.26;100.00;151947.69;5071584;28;20444;-75
2021/12/11 00:57:01;;;;;;;2.10;1.73;;;;;;;2.28;100.00;151952.81;5106659;28;20527;-74
2021/12/11 00:59:38;;;;;;;2.17;1.93;;;;;;;2.27;100.00;151948.97;5094489;28;20496;-75
2021/12/11 01:02:14;;;;;;;1.87;1.63;;;;;;;2.27;100.00;151948.97;5052125;28;21016;-75
2021/12/11 01:04:50;;;;;;;2.10;1.90;;;;;;;2.27;100.00;151950.28;5055093;28;20444;-75
2021/12/11 01:07:31;;;;;;;1.73;1.37;;;;;;;2.27;100.00;151950.28;5049831;28;20961;-74
2021/12/11 01:10:12;;;;;;;2.00;1.80;;;;;;;2.25;100.00;151945.09;5090754;28;20444;-75
2021/12/11 01:12:55;;;;;;;1.70;1.53;;;;;;;2.26;100.00;151946.41;5071757;28;20484;-74
2021/12/11 01:15:40;;;;;;;2.33;1.80;;;;;;;2.26;100.00;151947.69;5090199;28;20423;-75
2021/12/11 01:18:23;;;;;;;2.40;1.83;;;;;;;2.27;100.00;151948.97;5049365;28;20819;-75
2021/12/11 01:21:06;;;;;;;2.00;1.23;;;;;;;2.31;100.00;151959.25;5061774;28;20449;-75
2021/12/11 01:24:07;;;;;;;2.60;1.60;;;;;;;2.31;100.00;151960.53;5052502;28;20438;-75
2021/12/11 01:26:47;;;;;;;1.63;1.33;;;;;;;2.34;100.00;151968.25;5052394;28;20532;-74
2021/12/11 01:29:24;;;;;;;1.83;1.37;;;;;;;2.31;100.00;151960.53;5057701;28;20452;-75
2021/12/11 01:32:02;;;;;;;2.57;1.90;;;;;;;2.36;100.00;151972.09;5050871;28;20505;-75
2021/12/11 01:34:38;;;;;;;1.73;1.40;;;;;;;2.34;100.00;151966.97;5052248;28;20856;-74
2021/12/11 01:37:15;;;;;;;2.10;1.70;;;;;;;2.33;100.00;151965.66;5052109;28;20448;-75
2021/12/11 01:39:52;;;;;;;1.60;1.40;;;;;;;2.30;100.00;151957.94;5054269;28;20440;-74
2021/12/11 01:42:31;;;;;;;2.00;1.30;;;;;;;2.29;100.00;151955.41;5071389;28;20483;-75
2021/12/11 01:45:09;;;;;;;2.10;1.40;;;;;;;2.30;100.00;151957.94;5052406;28;20441;-75
2021/12/11 01:47:48;;;;;;;2.00;1.50;;;;;;;2.34;100.00;151966.97;5055894;28;20448;-75
2021/12/11 01:50:26;;;;;;;2.10;1.70;;;;;;;2.34;100.00;151966.97;5071541;28;20931;-75
2021/12/11 01:53:04;;;;;;;2.20;1.57;;;;;;;2.32;100.00;151961.84;5051060;28;20531;-75
2021/12/11 01:55:42;;;;;;;2.70;2.33;;;;;;;2.25;100.00;151945.09;5085158;28;20941;-75
2021/12/11 01:58:26;;;;;;;2.37;2.17;;;;;;;2.20;100.00;151932.25;5035618;28;20473;-75
2021/12/11 02:01:04;;;;;;;2.10;1.80;;;;;;;2.16;100.00;151920.69;5069714;28;20433;-75
2021/12/11 02:03:41;;;;;;;2.50;2.10;;;;;;;2.12;100.00;151910.44;5051250;28;20948;-75
2021/12/11 02:06:17;;;;;;;2.40;1.97;;;;;;;2.06;100.00;151895.00;5071550;28;20433;-75
2021/12/11 02:08:53;;;;;;;2.60;1.83;;;;;;;2.04;100.00;151891.09;5084364;28;20454;-74
2021/12/11 02:11:30;;;;;;;3.50;2.20;;;;;;;1.99;100.00;151876.97;5086155;28;20469;-75
2021/12/11 02:14:07;;;;;;;2.93;2.50;;;;;;;1.94;100.00;151865.41;5051419;28;20790;-75
2021/12/11 02:16:46;;;;;;;1.73;1.60;;;;;;;1.94;100.00;151865.41;5051050;28;20428;-75
2021/12/11 02:19:29;;;;;;;1.60;1.47;;;;;;;1.93;100.00;151862.88;5085257;28;20444;-75
2021/12/11 02:22:12;;;;;;;1.87;1.70;;;;;;;1.90;100.00;151853.84;5052065;28;20437;-74
2021/12/11 02:24:52;;;;;;;2.40;1.53;;;;;;;1.91;100.00;151857.69;5055672;28;20947;-75
2021/12/11 02:27:29;;;;;;;1.70;1.47;;;;;;;1.92;100.00;151860.28;5071085;28;20444;-75
2021/12/11 02:30:16;;;;;;;1.97;1.63;;;;;;;1.89;100.00;151852.56;5055330;28;20827;-75
2021/12/11 02:33:06;;;;;;;1.77;1.20;;;;;;;1.83;100.00;151837.13;5070735;28;20881;-74
2021/12/11 02:35:46;;;;;;;1.50;1.10;;;;;;;1.87;100.00;151846.13;5049485;28;20528;-75
2021/12/11 02:38:28;;;;;;;1.40;1.10;;;;;;;1.80;100.00;151829.44;5062426;28;20519;-75
2021/12/11 02:41:10;;;;;;;1.13;0.83;;;;;;;1.82;100.00;151834.56;5068911;28;20480;-75
2021/12/11 02:43:50;;;;;;;1.00;0.60;;;;;;;1.79;100.00;151828.16;5086760;28;20449;-75
2021/12/11 02:46:30;;;;;;;0.97;0.77;;;;;;;1.77;100.00;151822.97;5057722;28;20431;-75
2021/12/11 02:49:09;;;;;;;1.10;0.67;;;;;;;1.76;100.00;151819.13;5089003;28;20768;-75
2021/12/11 02:51:48;;;;;;;0.97;0.50;;;;;;;1.77;100.00;151821.72;5054983;28;21037;-75
2021/12/11 02:54:31;;;;;;;0.93;0.70;;;;;;;1.77;100.00;151821.72;5074065;28;20439;-75
2021/12/11 02:57:10;;;;;;;1.00;0.60;;;;;;;1.73;100.00;151811.41;5056359;28;20449;-75
2021/12/11 02:59:46;;;;;;;1.20;0.60;;;;;;;1.75;100.00;151816.56;5054783;28;20820;-75
2021/12/11 03:02:24;;;;;;;1.27;0.80;;;;;;;1.74;100.00;151815.31;5088166;28;20424;-75
2021/12/11 03:05:09;;;;;;;1.33;0.57;;;;;;;1.76;100.00;151820.44;5073053;28;20461;-75
2021/12/11 03:07:50;;;;;;;1.07;0.70;;;;;;;1.73;100.00;151811.41;5099272;28;20426;-74
2021/12/11 03:10:27;;;;;;;1.10;0.63;;;;;;;1.75;100.00;151816.56;5095414;28;20445;-75
2021/12/11 03:13:04;;;;;;;1.50;1.10;;;;;;;1.74;100.00;151814.00;5067506;28;20466;-75
2021/12/11 03:15:39;;;;;;;1.00;0.70;;;;;;;1.77;100.00;151821.72;5065710;28;20447;-75
2021/12/11 03:18:15;;;;;;;1.10;0.73;;;;;;;1.73;100.00;151811.41;5054180;28;20749;-75
2021/12/11 03:20:51;;;;;;;1.17;0.90;;;;;;;1.73;100.00;151811.41;5087981;28;20466;-75
2021/12/11 03:23:27;;;;;;;1.60;1.20;;;;;;;1.75;100.00;151816.56;5072009;28;20436;-75
2021/12/11 03:26:04;;;;;;;1.13;1.00;;;;;;;1.77;100.00;151822.97;5038528;28;20529;-75
2021/12/11 03:28:39;;;;;;;1.50;1.40;;;;;;;1.76;100.00;151819.13;5050927;28;20450;-75
2021/12/11 03:31:15;;;;;;;1.80;1.60;;;;;;;1.77;100.00;151821.72;5108018;28;20468;-74
2021/12/11 03:33:54;;;;;;;1.77;1.60;;;;;;;1.76;100.00;151819.13;5094262;28;20451;-75
2021/12/11 03:36:32;;;;;;;2.10;1.90;;;;;;;1.77;100.00;151822.97;5070632;28;20955;-75
2021/12/11 03:39:09;;;;;;;2.70;1.63;;;;;;;1.79;100.00;151828.16;5070514;28;20533;-75
2021/12/11 03:41:48;;;;;;;1.83;1.60;;;;;;;1.79;100.00;151826.84;5066260;28;20439;-75
2021/12/11 03:44:31;;;;;;;3.87;2.33;;;;;;;1.78;100.00;151824.25;5049333;28;20451;-75
2021/12/11 03:47:11;;;;;;;1.70;1.60;;;;;;;1.76;100.00;151820.44;5088116;28;20428;-75
2021/12/11 03:49:47;;;;;;;2.30;2.10;;;;;;;1.77;100.00;151822.97;5055482;28;20429;-75
2021/12/11 03:52:23;;;;;;;1.70;1.60;;;;;;;1.81;100.00;151832.00;5062656;28;20836;-75
2021/12/11 03:54:58;;;;;;;2.00;1.67;;;;;;;1.78;100.00;151824.25;5043970;28;20454;-75
2021/12/11 03:57:37;;;;;;;2.30;2.10;;;;;;;1.75;100.00;151816.56;5073439;28;20440;-75
2021/12/11 04:00:17;;;;;;;3.17;1.93;;;;;;;1.75;100.00;151816.56;5071482;28;20454;-76
2021/12/11 04:03:02;;;;;;;2.33;2.13;;;;;;;1.74;100.00;151815.31;5095006;28;20447;-75
2021/12/11 04:05:40;;;;;;;2.80;2.10;;;;;;;1.70;100.00;151805.00;5096582;28;20436;-75
2021/12/11 04:08:20;;;;;;;2.10;2.00;;;;;;;1.72;100.00;151808.88;5038088;28;20446;-75
2021/12/11 04:10:56;;;;;;;2.90;2.70;;;;;;;1.71;100.00;151806.28;5069165;28;20451;-75
2021/12/11 04:13:33;;;;;;;2.80;2.57;;;;;;;1.72;100.00;151808.88;5067274;28;20491;-75
2021/12/11 04:16:10;;;;;;;2.70;2.30;;;;;;;1.68;100.00;151798.56;5086928;28;20950;-75
2021/12/11 04:18:46;;;;;;;2.90;2.60;;;;;;;1.71;100.00;151807.59;5054024;28;20456;-75
2021/12/11 04:21:22;;;;;;;2.97;2.50;;;;;;;1.72;100.00;151808.88;5060436;28;20980;-75
2021/12/11 04:23:57;;;;;;;3.00;2.70;;;;;;;1.70;100.00;151803.69;5056213;28;20440;-75
2021/12/11 04:26:33;;;;;;;3.30;2.43;;;;;;;1.70;100.00;151803.69;5059776;28;20447;-75
2021/12/11 04:29:10;;;;;;;2.67;2.47;;;;;;;1.69;100.00;151802.47;5054602;28;20428;-74
2021/12/11 04:31:47;;;;;;;3.30;3.00;;;;;;;1.73;100.00;151812.72;5064757;28;20471;-75
2021/12/11 04:34:24;;;;;;;3.10;2.80;;;;;;;1.71;100.00;151807.59;5072368;28;20450;-75
2021/12/11 04:37:02;;;;;;;3.00;2.80;;;;;;;1.74;100.00;151814.00;5072116;28;20451;-75
2021/12/11 04:39:39;;;;;;;4.00;3.27;;;;;;;1.69;100.00;151801.16;5072460;28;20811;-75
2021/12/11 04:42:29;;;;;;;4.00;3.23;;;;;;;1.70;100.00;151805.00;5066600;28;20468;-75
2021/12/11 04:45:09;;;;;;;3.37;3.07;;;;;;;1.68;100.00;151798.56;5076245;28;20451;-75
2021/12/11 04:47:51;;;;;;;3.30;3.00;;;;;;;1.70;100.00;151805.00;5071792;28;20448;-75
2021/12/11 04:50:36;;;;;;;3.80;3.13;;;;;;;1.70;100.00;151803.69;5056893;28;20434;-75
2021/12/11 04:53:29;;;;;;;3.20;2.90;;;;;;;1.73;100.00;151811.41;5087978;28;20990;-75
2021/12/11 04:56:31;;;;;;;4.93;4.17;;;;;;;1.71;100.00;151806.28;5088689;28;21277;-75
2021/12/11 04:59:27;;;;;;;3.83;3.47;;;;;;;1.72;100.00;151808.88;5086181;28;20770;-75
2021/12/11 05:02:17;;;;;;;3.70;3.03;;;;;;;1.70;100.00;151805.00;5094814;28;20883;-75
2021/12/11 05:05:06;;;;;;;3.43;3.10;;;;;;;1.71;100.00;151806.28;5072136;28;20430;-75
2021/12/11 05:07:55;;;;;;;3.80;3.40;;;;;;;1.75;100.00;151816.56;5052420;28;20436;-75
2021/12/11 05:10:38;;;;;;;3.80;3.37;;;;;;;1.74;100.00;151814.00;5079635;28;20449;-75
2021/12/11 05:13:14;;;;;;;4.30;3.80;;;;;;;1.78;100.00;151825.56;5055773;28;20556;-75
2021/12/11 05:15:52;;;;;;;4.33;3.63;;;;;;;1.73;100.00;151812.72;5060852;28;20475;-75
2021/12/11 05:18:31;;;;;;;4.30;3.80;;;;;;;1.77;100.00;151821.72;5072216;28;20513;-75
2021/12/11 05:21:15;;;;;;;4.80;3.93;;;;;;;1.75;100.00;151816.56;5071784;28;20766;-75
2021/12/11 05:23:52;;;;;;;4.17;3.47;;;;;;;1.74;100.00;151814.00;5067422;28;20937;-75
2021/12/11 05:26:28;;;;;;;4.80;4.17;;;;;;;1.72;100.00;151810.13;5052155;28;20798;-75
2021/12/11 05:29:04;;;;;;;4.90;3.93;;;;;;;1.77;100.00;151822.97;5068835;28;20450;-74
2021/12/11 05:31:40;;;;;;;4.97;4.43;;;;;;;1.78;100.00;151824.25;5085321;28;20627;-75
2021/12/11 05:34:17;;;;;;;4.50;4.07;;;;;;;1.78;100.00;151824.25;5095197;28;20476;-75
2021/12/11 05:36:53;;;;;;;4.23;3.80;;;;;;;1.77;100.00;151821.72;5051534;28;20417;-75
2021/12/11 05:39:28;;;;;;;4.80;4.30;;;;;;;1.78;100.00;151824.25;5085529;28;20438;-75
2021/12/11 05:42:05;;;;;;;3.93;3.53;;;;;;;1.78;100.00;151824.25;5064475;28;20781;-75
2021/12/11 05:44:40;;;;;;;4.47;4.07;;;;;;;1.78;100.00;151825.56;5085534;28;20534;-75
2021/12/11 05:47:17;;;;;;;5.67;4.60;;;;;;;1.77;100.00;151821.72;5062317;28;20856;-74
2021/12/11 05:49:57;;;;;;;4.60;3.73;;;;;;;1.79;100.00;151826.84;5071568;28;20432;-75
2021/12/11 05:52:32;;;;;;;4.60;4.20;;;;;;;1.76;100.00;151819.13;5056669;28;20949;-75
2021/12/11 05:55:13;;;;;;;6.00;4.90;;;;;;;1.76;100.00;151819.13;5052485;28;20502;-75
2021/12/11 05:57:53;;;;;;;4.30;3.90;;;;;;;1.74;100.00;151814.00;5099862;28;20458;-75
2021/12/11 06:00:35;;;;;;;5.20;4.70;;;;;;;1.72;100.00;151808.88;5095335;28;20783;-75
2021/12/11 06:03:12;;;;;;;5.67;5.13;;;;;;;1.74;100.00;151814.00;5054793;28;20793;-75
2021/12/11 06:05:49;;;;;;;6.27;5.60;;;;;;;1.75;100.00;151817.84;5054427;28;20531;-75
2021/12/11 06:08:24;;;;;;;4.70;4.23;;;;;;;1.77;100.00;151821.72;5051250;28;20437;-75
2021/12/11 06:11:07;;;;;;;5.67;5.07;;;;;;;1.79;100.00;151826.84;5065070;28;20436;-75
2021/12/11 06:13:43;;;;;;;4.63;3.90;;;;;;;1.77;100.00;151822.97;5069428;28;21004;-75
2021/12/11 06:16:18;;;;;;;4.40;3.80;;;;;;;1.76;100.00;151819.13;5093941;28;20833;-75
2021/12/11 06:18:54;;;;;;;4.00;3.60;;;;;;;1.74;100.00;151815.31;5070990;28;20474;-75
2021/12/11 06:21:32;;;;;;;5.13;4.40;;;;;;;1.76;100.00;151819.13;5072250;28;20408;-75
2021/12/11 06:24:08;;;;;;;5.53;4.53;;;;;;;1.74;100.00;151815.31;5070693;28;20444;-75
2021/12/11 06:26:44;;;;;;;5.40;4.03;;;;;;;1.77;100.00;151821.72;5055574;28;20461;-75
2021/12/11 06:29:19;;;;;;;5.53;4.13;;;;;;;1.75;100.00;151816.56;5071036;28;20535;-75
2021/12/11 06:31:56;;;;;;;6.37;5.03;;;;;;;1.73;100.00;151811.41;5055418;28;20501;-75
2021/12/11 06:34:34;;;;;;;4.43;4.03;;;;;;;1.72;100.00;151808.88;5051040;28;20440;-74
2021/12/11 06:37:14;;;;;;;6.13;5.27;;;;;;;1.73;100.00;151811.41;5084891;28;20428;-74
2021/12/11 06:39:51;;;;;;;5.87;4.90;;;;;;;1.75;100.00;151816.56;5051047;28;20441;-74
2021/12/11 06:42:27;;;;;;;5.57;4.43;;;;;;;1.74;100.00;151815.31;5067999;28;20427;-75
2021/12/11 06:45:03;;;;;;;6.60;5.40;;;;;;;1.75;100.00;151817.84;5071056;28;20440;-75
2021/12/11 06:47:39;;;;;;;6.00;5.40;;;;;;;1.76;100.00;151819.13;5045334;28;20930;-75
2021/12/11 06:50:15;;;;;;;7.23;5.47;;;;;;;1.78;100.00;151824.25;5083230;28;20887;-74
2021/12/11 06:52:53;;;;;;;6.90;5.90;;;;;;;1.77;100.00;151821.72;5057633;28;20867;-75
2021/12/11 06:55:29;;;;;;;6.33;5.20;;;;;;;1.71;100.00;151806.28;5071382;28;20526;-75
2021/12/11 06:58:05;;;;;;;6.63;5.83;;;;;;;1.71;100.00;151806.28;5055188;28;20447;-74
2021/12/11 07:00:41;;;;;;;7.17;6.03;;;;;;;1.73;100.00;151812.72;5055607;28;20883;-74
2021/12/11 07:03:16;;;;;;;7.10;5.90;;;;;;;1.74;100.00;151814.00;5066935;28;20446;-75
2021/12/11 07:05:52;;;;;;;7.43;5.90;;;;;;;1.73;100.00;151811.41;5066848;28;20450;-74
2021/12/11 07:08:29;;;;;;;6.60;5.67;;;;;;;1.75;100.00;151816.56;5063123;28;20486;-75
2021/12/11 07:11:06;;;;;;;8.30;6.13;;;;;;;1.76;100.00;151820.44;5053995;28;20435;-75
2021/12/11 07:13:42;;;;;;;7.57;6.33;;;;;;;1.78;100.00;151825.56;5046895;28;20640;-76
2021/12/11 07:16:18;;;;;;;7.00;5.87;;;;;;;1.76;100.00;151819.13;5083429;28;20448;-76
2021/12/11 07:18:53;;;;;;;7.70;6.00;;;;;;;1.74;100.00;151814.00;5065311;28;20530;-75
2021/12/11 07:21:29;;;;;;;7.33;5.70;;;;;;;1.71;100.00;151807.59;5086872;28;20446;-75
2021/12/11 07:24:08;;;;;;;7.13;5.87;;;;;;;1.74;100.00;151814.00;5086323;28;20447;-76
2021/12/11 07:26:45;;;;;;;8.50;6.53;;;;;;;1.75;100.00;151816.56;5081875;28;20433;-75
2021/12/11 07:29:21;;;;;;;7.30;5.93;;;;;;;1.75;100.00;151816.56;5033976;28;20460;-75
2021/12/11 07:31:56;;;;;;;10.13;6.97;;;;;;;1.75;100.00;151816.56;5036199;28;20570;-75
2021/12/11 07:34:32;;;;;;;11.40;7.97;;;;;;;1.76;100.00;151819.13;5085413;28;20474;-75
2021/12/11 07:37:08;;;;;;;7.00;6.20;;;;;;;1.76;100.00;151819.13;5051837;28;20964;-75
2021/12/11 07:39:45;;;;;;;9.30;6.77;;;;;;;1.74;100.00;151814.00;5092909;28;20462;-75
2021/12/11 07:42:21;;;;;;;8.50;7.07;;;;;;;1.71;100.00;151806.28;5070044;28;20529;-75
2021/12/11 07:44:56;;;;;;;7.43;6.47;;;;;;;1.76;100.00;151819.13;5055008;28;20959;-75
2021/12/11 07:47:32;;;;;;;9.60;7.37;;;;;;;1.78;100.00;151824.25;5070681;28;20445;-75
2021/12/11 07:50:08;;;;;;;9.00;7.60;;;;;;;1.79;100.00;151826.84;5061508;28;20848;-75
2021/12/11 07:52:44;;;;;;;9.50;7.20;;;;;;;1.82;100.00;151835.88;5067848;28;20994;-74
2021/12/11 07:55:21;;;;;;;9.77;8.10;;;;;;;1.80;100.00;151830.69;5040077;28;20443;-75
2021/12/11 07:57:56;;;;;;;12.77;8.13;;;;;;;1.81;100.00;151832.00;5069928;28;20469;-74
2021/12/11 08:00:32;;;;;;;9.80;8.37;;;;;;;1.83;100.00;151837.13;5082290;28;20935;-75
2021/12/11 08:03:09;;;;;;;10.93;7.50;;;;;;;1.81;100.00;151832.00;5068672;28;20451;-74
2021/12/11 08:05:47;;;;;;;11.90;8.50;;;;;;;1.83;100.00;151837.13;5070761;28;20443;-75
2021/12/11 08:08:23;;;;;;;11.20;8.03;;;;;;;1.82;100.00;151835.88;5055018;28;20541;-75
2021/12/11 08:11:01;;;;;;;10.63;8.50;;;;;;;1.80;100.00;151829.44;5070364;28;20446;-75
2021/12/11 08:13:37;;;;;;;9.20;7.80;;;;;;;1.80;100.00;151829.44;5064968;28;20873;-76
2021/12/11 08:16:20;;;;;;;10.47;7.73;;;;;;;1.75;100.00;151816.56;5041299;28;20542;-75
2021/12/11 08:18:56;;;;;;;12.43;9.13;;;;;;;1.77;100.00;151821.72;5098038;28;20440;-75
2021/12/11 08:21:34;;;;;;;11.00;8.53;;;;;;;1.80;100.00;151830.69;5106522;28;20434;-75
2021/12/11 08:24:09;;;;;;;9.73;8.53;;;;;;;1.81;100.00;151833.28;5073024;28;20443;-75
2021/12/11 08:26:48;;;;;;;12.50;10.00;;;;;;;1.81;100.00;151832.00;5073089;28;20458;-75
2021/12/11 08:29:23;;;;;;;10.80;8.70;;;;;;;1.81;100.00;151832.00;5073100;28;20440;-75
2021/12/11 08:31:59;;;;;;;12.47;9.80;;;;;;;1.80;100.00;151830.69;5045395;28;20469;-75
2021/12/11 08:34:36;;;;;;;12.97;9.10;;;;;;;1.82;100.00;151834.56;5070066;28;20496;-75
2021/12/11 08:37:14;;;;;;;11.87;8.57;;;;;;;1.83;100.00;151837.13;5086607;28;20546;-75
2021/12/11 08:39:50;;;;;;;11.47;8.13;;;;;;;1.80;100.00;151830.69;5052847;28;20466;-75
2021/12/11 08:42:28;;;;;;;12.27;9.30;;;;;;;1.81;100.00;151832.00;5054924;28;20431;-76
2021/12/11 08:45:06;;;;;;;16.00;10.20;;;;;;;1.82;100.00;151835.88;5086260;28;20433;-75
2021/12/11 08:47:42;;;;;;;14.13;11.23;;;;;;;1.83;100.00;151838.41;5069920;28;20444;-75
2021/12/11 08:50:25;;;;;;;12.40;9.30;;;;;;;1.85;100.00;151842.28;5071420;28;20504;-75
2021/12/11 08:53:00;;;;;;;13.27;9.90;;;;;;;1.86;100.00;151844.84;5051233;28;20486;-75
2021/12/11 08:55:39;;;;;;;14.83;10.77;;;;;;;1.88;100.00;151849.97;5088269;28;20485;-75
2021/12/11 08:58:20;;;;;;;14.23;10.37;;;;;;;1.88;100.00;151849.97;5071206;28;20470;-75
2021/12/11 09:00:59;;;;;;;14.53;10.73;;;;;;;1.90;100.00;151855.16;5071264;28;20437;-75
2021/12/11 09:03:38;;;;;;;14.70;11.80;;;;;;;1.92;100.00;151860.28;5061763;28;20443;-74
2021/12/11 09:06:17;;;;;;;11.87;10.00;;;;;;;1.93;100.00;151862.88;5055907;28;20439;-75
2021/12/11 09:08:54;;;;;;;14.30;10.47;;;;;;;1.92;100.00;151860.28;5070293;28;20508;-75
2021/12/11 09:11:32;;;;;;;12.73;10.33;;;;;;;1.97;100.00;151873.13;5058947;28;20847;-74
2021/12/11 09:14:12;;;;;;;11.67;9.70;;;;;;;1.95;100.00;151866.69;5072157;28;20462;-75
2021/12/11 09:16:51;;;;;;;13.60;11.03;;;;;;;1.98;100.00;151874.41;5071327;28;20459;-74
2021/12/11 09:19:29;;;;;;;16.27;11.87;;;;;;;2.01;100.00;151883.44;5070631;28;20437;-75
2021/12/11 09:22:10;;;;;;;14.47;11.03;;;;;;;1.99;100.00;151878.25;5059632;28;20451;-75
2021/12/11 09:24:50;;;;;;;15.47;10.57;;;;;;;2.03;100.00;151888.56;5063567;28;21004;-75
2021/12/11 09:27:33;;;;;;;12.63;9.90;;;;;;;2.03;100.00;151888.56;5064164;28;20821;-74
2021/12/11 09:30:16;;;;;;;13.93;10.87;;;;;;;2.03;100.00;151888.56;5072456;28;20463;-74
2021/12/11 09:32:56;;;;;;;10.90;9.10;;;;;;;2.03;100.00;151888.56;5048703;28;20475;-74
2021/12/11 09:35:33;;;;;;;12.97;9.73;;;;;;;2.07;100.00;151898.81;5069955;28;20452;-74
2021/12/11 09:38:12;;;;;;;11.63;9.37;;;;;;;2.11;100.00;151909.13;5051547;28;20513;-74
2021/12/11 09:40:57;;;;;;;13.27;9.90;;;;;;;2.13;100.00;151914.25;5039839;28;20438;-75
2021/12/11 09:43:40;;;;;;;11.13;8.73;;;;;;;2.15;100.00;151918.09;5104678;28;20442;-75
2021/12/11 09:46:18;;;;;;;13.27;10.27;;;;;;;2.17;100.00;151923.28;5047162;28;20547;-74
2021/12/11 09:48:55;;;;;;;10.77;8.87;;;;;;;2.19;100.00;151929.72;5068607;28;20444;-74
2021/12/11 09:51:36;;;;;;;10.93;8.40;;;;;;;2.21;100.00;151934.84;5049032;28;20484;-75
2021/12/11 09:54:14;;;;;;;12.10;8.67;;;;;;;2.28;100.00;151952.81;5084709;28;20569;-74
2021/12/11 09:56:54;;;;;;;10.37;8.40;;;;;;;2.31;100.00;151960.53;5051516;28;20429;-75
2021/12/11 09:59:34;;;;;;;12.47;9.10;;;;;;;2.31;100.00;151960.53;5053355;28;20441;-74
2021/12/11 10:02:12;;;;;;;15.23;10.73;;;;;;;2.36;100.00;151973.41;5085280;28;20543;-74
2021/12/11 10:04:58;;;;;;;10.37;7.60;;;;;;;2.37;100.00;151974.69;5087508;28;20452;-75
2021/12/11 10:07:39;;;;;;;11.20;9.30;;;;;;;2.40;100.00;151983.72;5051583;28;20900;-74
2021/12/11 10:10:19;;;;;;;10.60;8.20;;;;;;;2.42;100.00;151988.84;5059280;28;20447;-74
2021/12/11 10:12:57;;;;;;;12.43;9.47;;;;;;;2.46;100.00;151997.84;5050204;28;20544;-75
2021/12/11 10:15:36;;;;;;;9.87;8.83;;;;;;;2.52;100.00;152013.25;5063481;28;20456;-77
2021/12/11 10:18:15;;;;;;;9.73;8.17;;;;;;;2.56;100.00;152022.28;5050406;28;20531;-76
2021/12/11 10:20:53;;;;;;;9.60;8.13;;;;;;;2.53;100.00;152014.56;5051078;28;20448;-76
2021/12/11 10:23:31;;;;;;;9.63;7.47;;;;;;;2.57;100.00;152024.88;5051218;28;20537;-76
2021/12/11 10:26:10;;;;;;;11.50;9.40;;;;;;;2.61;100.00;152035.13;5085179;28;20793;-76
2021/12/11 10:28:51;;;;;;;10.70;7.80;;;;;;;2.61;100.00;152035.13;5091713;28;20552;-74
2021/12/11 10:31:31;;;;;;;9.53;7.13;;;;;;;2.62;100.00;152037.72;5066322;28;20464;-76
2021/12/11 10:34:11;;;;;;;7.37;6.67;;;;;;;2.65;100.00;152046.69;5085098;28;20467;-76
2021/12/11 10:36:53;;;;;;;9.20;6.90;;;;;;;2.61;100.00;152035.13;5050051;28;20521;-76
2021/12/11 10:39:28;;;;;;;8.33;7.50;;;;;;;2.67;100.00;152050.56;5050870;28;20445;-76
2021/12/11 10:42:05;;;;;;;10.10;7.70;;;;;;;2.70;100.00;152058.31;5064075;28;20444;-76
2021/12/11 10:44:45;;;;;;;9.60;7.70;;;;;;;2.77;100.00;152076.28;5055491;28;20544;-76
2021/12/11 10:47:25;;;;;;;9.60;7.50;;;;;;;2.80;100.00;152084.03;5084518;28;20437;-76
2021/12/11 10:50:01;;;;;;;9.10;7.23;;;;;;;2.85;100.00;152096.88;5067800;28;20445;-76
2021/12/11 10:52:37;;;;;;;8.23;7.37;;;;;;;2.87;100.00;152103.31;5053700;28;20919;-76
2021/12/11 10:55:17;;;;;;;8.30;7.03;;;;;;;2.91;100.00;152113.56;5103203;28;20522;-76
2021/12/11 10:57:55;;;;;;;7.70;6.70;;;;;;;2.92;100.00;152114.88;5054418;28;20531;-76
2021/12/11 11:00:34;;;;;;;8.43;6.63;;;;;;;2.92;100.00;152114.88;5054149;28;20473;-76
2021/12/11 11:03:11;;;;;;;6.67;5.90;;;;;;;2.87;100.00;152102.00;5054439;28;20507;-76
2021/12/11 11:05:47;;;;;;;6.80;5.90;;;;;;;2.87;100.00;152103.31;5057311;28;20449;-76
2021/12/11 11:08:23;;;;;;;8.07;6.33;;;;;;;2.90;100.00;152109.75;5074882;28;20834;-76
2021/12/11 11:11:02;;;;;;;10.20;7.27;;;;;;;2.96;100.00;152125.19;5066992;28;20481;-76
2021/12/11 11:13:38;;;;;;;7.37;5.57;;;;;;;2.93;100.00;152117.47;5074294;28;20456;-76
2021/12/11 11:16:14;;;;;;;7.13;5.80;;;;;;;2.94;100.00;152120.00;5108293;28;20433;-76
2021/12/11 11:18:51;;;;;;;9.83;6.90;;;;;;;2.95;100.00;152123.91;5056123;28;20829;-76
2021/12/11 11:21:30;;;;;;;7.43;6.67;;;;;;;2.99;100.00;152132.91;5038631;28;20437;-76
2021/12/11 11:24:07;;;;;;;7.70;6.73;;;;;;;3.05;100.00;152148.31;5051439;28;20456;-76
2021/12/11 11:26:45;;;;;;;7.83;6.70;;;;;;;3.05;100.00;152148.31;5038693;28;20680;-76
2021/12/11 11:29:23;;;;;;;7.83;6.10;;;;;;;3.05;100.00;152148.31;5048432;28;20475;-75
2021/12/11 11:32:02;;;;;;;7.63;6.23;;;;;;;2.99;100.00;152132.91;5073821;28;20982;-76
2021/12/11 11:34:41;;;;;;;6.80;6.10;;;;;;;2.99;100.00;152134.16;5108324;28;21054;-76
2021/12/11 11:37:22;;;;;;;8.40;6.47;;;;;;;2.99;100.00;152134.16;5072755;28;20431;-75
2021/12/11 11:39:59;;;;;;;9.20;6.73;;;;;;;3.00;100.00;152136.75;5091232;28;20458;-76
2021/12/11 11:42:35;;;;;;;9.20;7.10;;;;;;;3.06;100.00;152152.22;5073311;28;20476;-76
2021/12/11 11:45:12;;;;;;;7.27;5.93;;;;;;;3.08;100.00;152157.34;5058209;28;20791;-76
2021/12/11 11:47:48;;;;;;;6.10;5.47;;;;;;;3.10;100.00;152161.19;5073396;28;20488;-76
2021/12/11 11:50:28;;;;;;;7.30;6.10;;;;;;;3.08;100.00;152156.06;5057989;28;20537;-76
2021/12/11 11:53:04;;;;;;;8.77;7.13;;;;;;;3.10;100.00;152161.19;5073216;28;20918;-76
2021/12/11 11:55:44;;;;;;;8.63;6.40;;;;;;;3.13;100.00;152168.91;5073172;28;21022;-76
2021/12/11 11:58:20;;;;;;;7.20;6.17;;;;;;;3.10;100.00;152161.19;5038273;28;20794;-76
2021/12/11 12:01:01;;;;;;;10.03;7.30;;;;;;;3.08;100.00;152156.06;5053389;28;20438;-76
2021/12/11 12:03:49;;;;;;;7.33;6.03;;;;;;;3.10;100.00;152161.19;5054590;28;20565;-76
2021/12/11 12:06:31;;;;;;;7.43;5.80;;;;;;;3.15;100.00;152174.03;5053189;28;20437;-76
2021/12/11 12:09:09;;;;;;;6.93;6.23;;;;;;;3.14;100.00;152171.50;5040204;28;20902;-76
2021/12/11 12:11:45;;;;;;;6.60;5.90;;;;;;;3.13;100.00;152168.91;5056525;28;20438;-76
2021/12/11 12:14:26;;;;;;;6.73;5.90;;;;;;;3.12;100.00;152166.38;5053079;28;20480;-76
2021/12/11 12:17:03;;;;;;;5.73;5.10;;;;;;;3.08;100.00;152157.34;5095678;28;20558;-75